Friday, November 24, 2017, 8:13 AM EST
Back to Local

KMTN, Baltimore / Martin

Location: Middle River, MD, United States Lat: 39.333
Local Time: 8:13 AM EST (13:13 GMT) Lon: -76.417
Time Zone: US/Eastern Elev: 22 ft

Show me the last for .
Show Decoded

2017-11-24 07:45 METAR KMTN 241245Z 00000KT 10SM SKC M02/M02 A3010 =
2017-11-24 06:50 METAR KMTN 241150Z 00000KT 10SM SKC M02/M02 A3010 =
2017-11-24 05:45 METAR KMTN 241045Z 00000KT 10SM SKC M01/M02 A3010 RMK FIRST =
2017-11-24 05:36 METAR KMTN 241036Z AUTO 00000KT 10SM CLR M01/M02 A3010 RMK AO2 =
2017-11-24 05:30 METAR KMTN 241030Z AUTO 00000KT 10SM CLR M01/M02 A3010 RMK AO2 =
2017-11-24 05:09 METAR KMTN 241009Z AUTO 00000KT 10SM CLR M01/M02 A3010 RMK AO2 =
2017-11-24 04:51 METAR KMTN 240951Z AUTO 29003KT 10SM CLR M02/M02 A3009 RMK AO2 =
2017-11-24 04:30 METAR KMTN 240930Z AUTO 00000KT 10SM CLR M01/M02 A3009 RMK AO2 =
2017-11-24 04:09 METAR KMTN 240909Z AUTO 00000KT 10SM CLR M01/M02 A3009 RMK AO2 =
2017-11-24 03:51 METAR KMTN 240851Z AUTO 00000KT 10SM CLR M01/M02 A3009 RMK AO2 =
2017-11-24 03:30 METAR KMTN 240830Z AUTO 00000KT 10SM CLR M01/M02 A3009 RMK AO2 =
2017-11-24 03:09 METAR KMTN 240809Z AUTO 00000KT 10SM CLR 00/M01 A3009 RMK AO2 =
2017-11-24 02:51 METAR KMTN 240751Z AUTO 00000KT 10SM CLR M01/M01 A3009 RMK AO2 =
2017-11-24 02:30 METAR KMTN 240730Z AUTO 00000KT 10SM CLR 00/M01 A3009 RMK AO2 =
2017-11-24 02:09 METAR KMTN 240709Z AUTO 00000KT 10SM CLR 00/M01 A3008 RMK AO2 =
2017-11-24 01:51 METAR KMTN 240651Z AUTO 00000KT 10SM CLR 00/M01 A3008 RMK AO2 =
2017-11-24 01:30 METAR KMTN 240630Z AUTO 00000KT 10SM CLR 00/M01 A3008 RMK AO2 =
2017-11-24 01:09 METAR KMTN 240609Z AUTO 00000KT 10SM CLR 00/M01 A3008 RMK AO2 =
2017-11-24 00:51 METAR KMTN 240551Z AUTO 00000KT 10SM CLR 00/M01 A3009 RMK AO2 =
2017-11-24 00:30 METAR KMTN 240530Z AUTO 00000KT 10SM CLR 00/M01 A3009 RMK AO2 =
2017-11-24 00:09 METAR KMTN 240509Z AUTO 00000KT 10SM CLR 00/M01 A3010 RMK AO2 =
2017-11-23 23:51 METAR KMTN 240451Z AUTO 00000KT 10SM CLR 00/M01 A3010 RMK AO2 =
2017-11-23 23:30 METAR KMTN 240430Z AUTO 00000KT 10SM CLR 00/M01 A3009 RMK AO2 =
2017-11-23 23:09 METAR KMTN 240409Z AUTO 00000KT 10SM CLR 00/M01 A3010 RMK AO2 =
2017-11-23 22:51 METAR KMTN 240351Z AUTO 29003KT 10SM CLR 00/M01 A3010 RMK AO2 =
2017-11-23 22:30 METAR KMTN 240330Z AUTO 00000KT 10SM CLR 00/M01 A3009 RMK AO2 =
2017-11-23 22:09 METAR KMTN 240309Z AUTO 00000KT 10SM CLR 00/M01 A3010 RMK AO2 =
2017-11-23 21:45 METAR KMTN 240245Z 00000KT 10SM SKC 01/M01 A3010 RMK LAST =
2017-11-23 20:45 METAR KMTN 240145Z 00000KT 10SM SKC 01/M01 A3008 =
2017-11-23 19:45 METAR KMTN 240045Z 00000KT 10SM SKC 02/00 A3007 =
2017-11-23 18:45 METAR KMTN 232345Z 00000KT 10SM SKC 03/M02 A3008 =
2017-11-23 17:45 METAR KMTN 232245Z 00000KT 10SM SKC 04/M03 A3009 =
2017-11-23 16:45 METAR KMTN 232145Z 00000KT 10SM FEW200 06/M04 A3008 =
2017-11-23 15:45 METAR KMTN 232045Z 00000KT 10SM FEW200 07/M04 A3008 =
2017-11-23 14:45 METAR KMTN 231945Z 30006KT 10SM FEW200 07/M03 A3008 =
2017-11-23 13:45 METAR KMTN 231845Z 28005KT 10SM FEW200 07/M04 A3010 =
2017-11-23 12:45 METAR KMTN 231745Z 00000KT 10SM SKC 06/M04 A3011 =
2017-11-23 11:45 METAR KMTN 231645Z 31003KT 10SM SCT250 06/M04 A3014 =
2017-11-23 10:45 METAR KMTN 231545Z 31007KT 10SM SCT250 05/M04 A3018 =
2017-11-23 09:45 METAR KMTN 231445Z 30010G14KT 10SM SCT250 03/M03 A3019 =
2017-11-23 08:45 METAR KMTN 231345Z 28003KT 10SM FEW250 01/M02 A3022 =

Support USWX by starting your Amazon purchase here.